Time;durP1;ratioP1;P1;durP2;ratioP2;P2;SDS_P1;SDS_P2;PMS_P1;PMS_P2;Temp;Humidity;BMP_temperature;BMP_pressure;BME280_temperature;BME280_humidity;BME280_pressure;Samples;Min_cycle;Max_cycle;Signal;HPM_P1;HPM_P2
2023/05/16 00:02:23;;;;;;;;;;;;;;;;;;6178661;23;19924;-80
2023/05/16 00:04:50;;;;;;;;;;;;;;;;;;6171696;23;19924;-80
2023/05/16 00:07:17;;;;;;;;;;;;;;;;;;6166656;23;19931;-80
2023/05/16 00:09:44;;;;;;;;;;;;;;;;;;6169309;23;19920;-80
2023/05/16 00:12:12;;;;;;;;;;;;;;;;;;6150455;23;19920;-80
2023/05/16 00:14:42;;;;;;;;;;;;;;;;;;6157265;23;19920;-80
2023/05/16 00:17:10;;;;;;;;;;;;;;;;;;6183794;23;19939;-80
2023/05/16 00:19:38;;;;;;;;;;;;;;;;;;6183388;23;19905;-80
2023/05/16 00:22:10;;;;;;;;;;;;;;;;;;6183378;23;19960;-80
2023/05/16 00:24:37;;;;;;;;;;;;;;;;;;6183684;23;19916;-80
2023/05/16 00:27:04;;;;;;;;;;;;;;;;;;6182372;23;20260;-80
2023/05/16 00:29:44;;;;;;;;;;;;;;;;;;6154825;23;19931;-80
2023/05/16 00:32:15;;;;;;;;;;;;;;;;;;6171297;23;20341;-80
2023/05/16 00:34:42;;;;;;;;;;;;;;;;;;6148378;23;19927;-80
2023/05/16 00:37:11;;;;;;;;;;;;;;;;;;6146938;23;19924;-80
2023/05/16 00:39:39;;;;;;;;;;;;;;;;;;6152702;23;19921;-80
2023/05/16 00:42:06;;;;;;;;;;;;;;;;;;6156738;23;19921;-80
2023/05/16 00:44:33;;;;;;;;;;;;;;;;;;6158091;23;19925;-80
2023/05/16 00:47:01;;;;;;;;;;;;;;;;;;6158353;23;19920;-80
2023/05/16 00:49:33;;;;;;;;;;;;;;;;;;6157435;23;19930;-80
2023/05/16 00:52:00;;;;;;;;;;;;;;;;;;6158386;23;19924;-80
2023/05/16 00:54:29;;;;;;;;;;;;;;;;;;6157500;23;19964;-80
2023/05/16 00:57:00;;;;;;;;;;;;;;;;;;6157586;23;19924;-80
2023/05/16 00:59:27;;;;;;;;;;;;;;;;;;6152011;23;19920;-80
2023/05/16 01:01:55;;;;;;;;;;;;;;;;;;6178174;23;19927;-80
2023/05/16 01:04:51;;;;;;;;;;;;;;;;;;6175106;23;19920;-80
2023/05/16 01:07:18;;;;;;;;;;;;;;;;;;6178423;23;19920;-80
2023/05/16 01:09:45;;;;;;;;;;;;;;;;;;6183140;23;19920;-80
2023/05/16 01:12:16;;;;;;;;;;;;;;;;;;6156267;23;20218;-80
2023/05/16 01:14:47;;;;;;;;;;;;;;;;;;6191944;23;19921;-80
2023/05/16 01:17:17;;;;;;;;;;;;;;;;;;6156330;23;19926;-80
2023/05/16 01:19:51;;;;;;;;;;;;;;;;;;6156748;23;19926;-80
2023/05/16 01:22:25;;;;;;;;;;;;;;;;;;6190206;23;20434;-80
2023/05/16 01:24:57;;;;;;;;;;;;;;;;;;6181082;23;20195;-79
2023/05/16 01:27:53;;;;;;;;;;;;;;;;;;6214683;23;19927;-80
2023/05/16 01:30:22;;;;;;;;;;;;;;;;;;6177089;23;19920;-80
2023/05/16 01:32:51;;;;;;;;;;;;;;;;;;6153914;23;19920;-80
2023/05/16 01:35:18;;;;;;;;;;;;;;;;;;6154134;23;19927;-80
2023/05/16 01:37:48;;;;;;;;;;;;;;;;;;6180834;23;19920;-80
2023/05/16 01:40:16;;;;;;;;;;;;;;;;;;6180759;23;19927;-80
2023/05/16 01:42:45;;;;;;;;;;;;;;;;;;6155497;23;19926;-80
2023/05/16 01:45:17;;;;;;;;;;;;;;;;;;6157030;23;19926;-80
2023/05/16 01:47:48;;;;;;;;;;;;;;;;;;6179414;23;19920;-80
2023/05/16 01:50:16;;;;;;;;;;;;;;;;;;6155180;23;19926;-80
2023/05/16 01:52:45;;;;;;;;;;;;;;;;;;6154050;23;19930;-80
2023/05/16 01:55:14;;;;;;;;;;;;;;;;;;6153738;23;19924;-80
2023/05/16 01:57:42;;;;;;;;;;;;;;;;;;6153605;23;19934;-80
2023/05/16 02:00:18;;;;;;;;;;;;;;;;;;6153559;23;19924;-80
2023/05/16 02:02:45;;;;;;;;;;;;;;;;;;6205333;23;19927;-80
2023/05/16 02:05:13;;;;;;;;;;;;;;;;;;6155414;23;19920;-80
2023/05/16 02:07:41;;;;;;;;;;;;;;;;;;6155121;23;19920;-79
2023/05/16 02:10:09;;;;;;;;;;;;;;;;;;6154567;23;19935;-80
2023/05/16 02:12:36;;;;;;;;;;;;;;;;;;6189480;23;19920;-80
2023/05/16 02:15:13;;;;;;;;;;;;;;;;;;6155558;23;19921;-80
2023/05/16 02:17:41;;;;;;;;;;;;;;;;;;6155856;23;19920;-80
2023/05/16 02:20:10;;;;;;;;;;;;;;;;;;6158995;23;19920;-80
2023/05/16 02:22:38;;;;;;;;;;;;;;;;;;6160077;23;19967;-80
2023/05/16 02:25:05;;;;;;;;;;;;;;;;;;6161572;23;19956;-80
2023/05/16 02:27:32;;;;;;;;;;;;;;;;;;6160875;23;19920;-80
2023/05/16 02:30:02;;;;;;;;;;;;;;;;;;6160851;23;19967;-80
2023/05/16 02:32:32;;;;;;;;;;;;;;;;;;6154167;23;19924;-80
2023/05/16 02:35:01;;;;;;;;;;;;;;;;;;6177741;23;19931;-80
2023/05/16 02:37:31;;;;;;;;;;;;;;;;;;6153058;23;19930;-80
2023/05/16 02:39:58;;;;;;;;;;;;;;;;;;6205607;23;19927;-80
2023/05/16 02:42:26;;;;;;;;;;;;;;;;;;6153217;23;19911;-80
2023/05/16 02:44:53;;;;;;;;;;;;;;;;;;6151864;23;20259;-80
2023/05/16 02:47:23;;;;;;;;;;;;;;;;;;6159172;23;19904;-80
2023/05/16 02:49:51;;;;;;;;;;;;;;;;;;6156601;23;19944;-80
2023/05/16 02:52:19;;;;;;;;;;;;;;;;;;6189404;23;19930;-81
2023/05/16 02:54:47;;;;;;;;;;;;;;;;;;6153904;23;19920;-81
2023/05/16 02:57:18;;;;;;;;;;;;;;;;;;6153963;23;19920;-80
2023/05/16 02:59:48;;;;;;;;;;;;;;;;;;6154772;23;19921;-80
2023/05/16 03:02:18;;;;;;;;;;;;;;;;;;6179579;23;19921;-80
2023/05/16 03:04:47;;;;;;;;;;;;;;;;;;6179180;23;19920;-80
2023/05/16 03:07:17;;;;;;;;;;;;;;;;;;6153017;23;19930;-80
2023/05/16 03:09:48;;;;;;;;;;;;;;;;;;6154277;23;19920;-80
2023/05/16 03:12:15;;;;;;;;;;;;;;;;;;6178547;23;19927;-80
2023/05/16 03:14:42;;;;;;;;;;;;;;;;;;6153310;23;19934;-80
2023/05/16 03:17:10;;;;;;;;;;;;;;;;;;6178125;23;19927;-80
2023/05/16 03:19:37;;;;;;;;;;;;;;;;;;6177927;23;19927;-80
2023/05/16 03:22:06;;;;;;;;;;;;;;;;;;6178613;23;19921;-80
2023/05/16 03:24:33;;;;;;;;;;;;;;;;;;6153310;23;19920;-80
2023/05/16 03:27:03;;;;;;;;;;;;;;;;;;6153249;23;19925;-80
2023/05/16 03:29:30;;;;;;;;;;;;;;;;;;6154024;23;19926;-80
2023/05/16 03:31:57;;;;;;;;;;;;;;;;;;6153647;23;19920;-80
2023/05/16 03:34:25;;;;;;;;;;;;;;;;;;6154733;23;19926;-80
2023/05/16 03:36:54;;;;;;;;;;;;;;;;;;6203891;23;19904;-81
2023/05/16 03:39:24;;;;;;;;;;;;;;;;;;6176825;23;19935;-81
2023/05/16 03:41:54;;;;;;;;;;;;;;;;;;6204813;23;19927;-81
2023/05/16 03:44:23;;;;;;;;;;;;;;;;;;6154192;23;19924;-80
2023/05/16 03:46:54;;;;;;;;;;;;;;;;;;6178532;23;19924;-81
2023/05/16 03:49:27;;;;;;;;;;;;;;;;;;6153571;23;19904;-81
2023/05/16 03:51:54;;;;;;;;;;;;;;;;;;6155372;23;19924;-80
2023/05/16 03:54:25;;;;;;;;;;;;;;;;;;6157209;23;19910;-81
2023/05/16 03:56:52;;;;;;;;;;;;;;;;;;6162931;23;19944;-81
2023/05/16 03:59:20;;;;;;;;;;;;;;;;;;6186657;23;19952;-80
2023/05/16 04:01:49;;;;;;;;;;;;;;;;;;6186238;23;19960;-80
2023/05/16 04:04:17;;;;;;;;;;;;;;;;;;6160816;23;19960;-81
2023/05/16 04:06:44;;;;;;;;;;;;;;;;;;6184482;23;19927;-80
2023/05/16 04:09:14;;;;;;;;;;;;;;;;;;6158780;23;19995;-81
2023/05/16 04:11:42;;;;;;;;;;;;;;;;;;6154834;23;19920;-81
2023/05/16 04:14:09;;;;;;;;;;;;;;;;;;6126362;23;19921;-81
2023/05/16 04:16:36;;;;;;;;;;;;;;;;;;6145537;23;19926;-80
2023/05/16 04:19:04;;;;;;;;;;;;;;;;;;6146893;23;19924;-81
2023/05/16 04:21:32;;;;;;;;;;;;;;;;;;6152937;23;19925;-81
2023/05/16 04:23:59;;;;;;;;;;;;;;;;;;6157678;23;19921;-80
2023/05/16 04:26:26;;;;;;;;;;;;;;;;;;6182193;23;20256;-80
2023/05/16 04:28:55;;;;;;;;;;;;;;;;;;6131943;23;19930;-81
2023/05/16 04:31:23;;;;;;;;;;;;;;;;;;6180752;23;19924;-81
2023/05/16 04:33:51;;;;;;;;;;;;;;;;;;6157473;23;19920;-81
2023/05/16 04:36:20;;;;;;;;;;;;;;;;;;6156291;23;19927;-81
2023/05/16 04:38:47;;;;;;;;;;;;;;;;;;6180397;23;19924;-80
2023/05/16 04:41:15;;;;;;;;;;;;;;;;;;6154923;23;19921;-81
2023/05/16 04:43:42;;;;;;;;;;;;;;;;;;6154856;23;19930;-80
2023/05/16 04:46:12;;;;;;;;;;;;;;;;;;6206137;23;19928;-81
2023/05/16 04:48:39;;;;;;;;;;;;;;;;;;6156021;23;19920;-81
2023/05/16 04:51:06;;;;;;;;;;;;;;;;;;6207024;23;19920;-81
2023/05/16 04:53:35;;;;;;;;;;;;;;;;;;6155123;23;19921;-81
2023/05/16 04:56:04;;;;;;;;;;;;;;;;;;6131630;23;19939;-81
2023/05/16 04:58:31;;;;;;;;;;;;;;;;;;6156172;23;19927;-81
2023/05/16 05:00:59;;;;;;;;;;;;;;;;;;6179292;23;19920;-81
2023/05/16 05:03:26;;;;;;;;;;;;;;;;;;6154854;23;19927;-81
2023/05/16 05:05:54;;;;;;;;;;;;;;;;;;6154754;23;20292;-81
2023/05/16 05:08:21;;;;;;;;;;;;;;;;;;6154841;23;19920;-81
2023/05/16 05:10:50;;;;;;;;;;;;;;;;;;6179647;23;19920;-81
2023/05/16 05:13:17;;;;;;;;;;;;;;;;;;6154393;23;19924;-81
2023/05/16 05:15:44;;;;;;;;;;;;;;;;;;6179867;23;19921;-81
2023/05/16 05:18:13;;;;;;;;;;;;;;;;;;6178812;23;19920;-81
2023/05/16 05:20:43;;;;;;;;;;;;;;;;;;6154697;23;20260;-81
2023/05/16 05:23:10;;;;;;;;;;;;;;;;;;6155485;23;20386;-81
2023/05/16 05:25:38;;;;;;;;;;;;;;;;;;6155552;23;19921;-81
2023/05/16 05:28:07;;;;;;;;;;;;;;;;;;6180714;23;19927;-81
2023/05/16 05:30:34;;;;;;;;;;;;;;;;;;6153877;23;19925;-81
2023/05/16 05:33:02;;;;;;;;;;;;;;;;;;6154428;23;19920;-81
2023/05/16 05:35:29;;;;;;;;;;;;;;;;;;6154992;23;19921;-81
2023/05/16 05:37:56;;;;;;;;;;;;;;;;;;6154549;23;19908;-81
2023/05/16 05:40:23;;;;;;;;;;;;;;;;;;6154788;23;19920;-81
2023/05/16 05:42:52;;;;;;;;;;;;;;;;;;6155920;23;19924;-81
2023/05/16 05:45:26;;;;;;;;;;;;;;;;;;6154071;23;19920;-81
2023/05/16 05:47:53;;;;;;;;;;;;;;;;;;6172958;23;19926;-80
2023/05/16 06:01:41;;;;;;;;;;;;;;;;;;6182772;23;19909;-93
2023/05/16 06:04:11;;;;;;;;;;;;;;;;;;6196493;22;19937;-93
2023/05/16 06:06:38;;;;;;;;;;;;;;;;;;6213272;22;19944;-92
2023/05/16 06:09:06;;;;;;;;;;;;;;;;;;6187089;22;19960;-94
2023/05/16 06:11:33;;;;;;;;;;;;;;;;;;6213283;22;19948;-92
2023/05/16 06:14:00;;;;;;;;;;;;;;;;;;6162247;22;19948;-94
2023/05/16 06:16:27;;;;;;;;;;;;;;;;;;6212699;22;19944;-94
2023/05/16 06:18:59;;;;;;;;;;;;;;;;;;6187564;22;19908;-95
2023/05/16 06:21:26;;;;;;;;;;;;;;;;;;6222871;22;19944;-94
2023/05/16 06:23:54;;;;;;;;;;;;;;;;;;6211673;22;19956;-94
2023/05/16 06:26:24;;;;;;;;;;;;;;;;;;6187392;22;19948;-93
2023/05/16 06:28:51;;;;;;;;;;;;;;;;;;6186688;22;19948;-93
2023/05/16 06:31:21;;;;;;;;;;;;;;;;;;6212543;22;19940;-93
2023/05/16 06:33:48;;;;;;;;;;;;;;;;;;6212428;22;19940;-94
2023/05/16 06:36:17;;;;;;;;;;;;;;;;;;6186338;22;19948;-92
2023/05/16 06:38:47;;;;;;;;;;;;;;;;;;6161753;22;19956;-93
2023/05/16 06:41:39;;;;;;;;;;;;;;;;;;6187162;22;19944;-93
2023/05/16 06:44:16;;;;;;;;;;;;;;;;;;6197023;22;19911;-94
2023/05/16 06:46:46;;;;;;;;;;;;;;;;;;6212393;22;19944;-93
2023/05/16 06:49:18;;;;;;;;;;;;;;;;;;6212002;22;19956;-93
2023/05/16 06:51:51;;;;;;;;;;;;;;;;;;6187169;22;19960;-94
2023/05/16 06:54:18;;;;;;;;;;;;;;;;;;6196611;22;19905;-94
2023/05/16 06:56:51;;;;;;;;;;;;;;;;;;6212409;22;19972;-93
2023/05/16 06:59:19;;;;;;;;;;;;;;;;;;6186515;22;19910;-92
2023/05/16 07:01:46;;;;;;;;;;;;;;;;;;6212197;22;19940;-93
2023/05/16 07:04:16;;;;;;;;;;;;;;;;;;6186495;22;19948;-94
2023/05/16 07:06:53;;;;;;;;;;;;;;;;;;6193143;22;19960;-94
2023/05/16 07:09:21;;;;;;;;;;;;;;;;;;6212166;22;19960;-94
2023/05/16 07:11:48;;;;;;;;;;;;;;;;;;6186566;22;19956;-95
2023/05/16 07:14:15;;;;;;;;;;;;;;;;;;6162076;22;19956;-94
2023/05/16 07:16:42;;;;;;;;;;;;;;;;;;6185905;22;19904;-93
2023/05/16 07:19:10;;;;;;;;;;;;;;;;;;6186484;22;19938;-94
2023/05/16 07:21:37;;;;;;;;;;;;;;;;;;6212746;22;19976;-93
2023/05/16 07:24:06;;;;;;;;;;;;;;;;;;6212717;22;19949;-94
2023/05/16 07:26:33;;;;;;;;;;;;;;;;;;6186476;22;20225;-94
2023/05/16 07:29:01;;;;;;;;;;;;;;;;;;6186013;22;19945;-93
2023/05/16 07:31:31;;;;;;;;;;;;;;;;;;6161870;22;19957;-95
2023/05/16 07:34:00;;;;;;;;;;;;;;;;;;6185866;22;19968;-93
2023/05/16 07:36:27;;;;;;;;;;;;;;;;;;6162111;22;19960;-94
2023/05/16 07:38:55;;;;;;;;;;;;;;;;;;6185708;22;19952;-94
2023/05/16 07:41:25;;;;;;;;;;;;;;;;;;6161831;23;19949;-94
2023/05/16 07:43:55;;;;;;;;;;;;;;;;;;6196617;22;19948;-92
2023/05/16 07:46:26;;;;;;;;;;;;;;;;;;6186786;22;19956;-94
2023/05/16 07:48:56;;;;;;;;;;;;;;;;;;6213338;22;19944;-93
2023/05/16 07:51:23;;;;;;;;;;;;;;;;;;6186724;22;19944;-93
2023/05/16 07:53:51;;;;;;;;;;;;;;;;;;6186154;22;19904;-93
2023/05/16 07:56:25;;;;;;;;;;;;;;;;;;6220893;22;19948;-94
2023/05/16 07:58:54;;;;;;;;;;;;;;;;;;6222176;22;19904;-93
2023/05/16 08:01:23;;;;;;;;;;;;;;;;;;6187230;22;19914;-93
2023/05/16 08:03:52;;;;;;;;;;;;;;;;;;6213958;22;19959;-93
2023/05/16 08:06:21;;;;;;;;;;;;;;;;;;6212972;22;19956;-92
2023/05/16 08:08:51;;;;;;;;;;;;;;;;;;6187595;22;19944;-95
2023/05/16 08:11:21;;;;;;;;;;;;;;;;;;6187379;22;19975;-93
2023/05/16 08:13:50;;;;;;;;;;;;;;;;;;6214132;22;19953;-94
2023/05/16 08:16:17;;;;;;;;;;;;;;;;;;6213457;22;19952;-94
2023/05/16 08:18:48;;;;;;;;;;;;;;;;;;6188523;22;19948;-93
2023/05/16 08:21:16;;;;;;;;;;;;;;;;;;6197154;22;19908;-94
2023/05/16 08:23:43;;;;;;;;;;;;;;;;;;6214009;22;19956;-93
2023/05/16 08:26:13;;;;;;;;;;;;;;;;;;6188018;22;19983;-93
2023/05/16 08:28:40;;;;;;;;;;;;;;;;;;6213062;22;19964;-94
2023/05/16 08:31:10;;;;;;;;;;;;;;;;;;6162108;22;19992;-93
2023/05/16 08:33:40;;;;;;;;;;;;;;;;;;6186713;22;19952;-93
2023/05/16 08:36:09;;;;;;;;;;;;;;;;;;6187841;23;19952;-92
2023/05/16 08:38:38;;;;;;;;;;;;;;;;;;6223146;22;19960;-94
2023/05/16 08:41:05;;;;;;;;;;;;;;;;;;6187597;22;19908;-92
2023/05/16 08:43:35;;;;;;;;;;;;;;;;;;6187469;22;19956;-93
2023/05/16 08:46:02;;;;;;;;;;;;;;;;;;6212847;22;19948;-92
2023/05/16 08:48:31;;;;;;;;;;;;;;;;;;6162880;22;19948;-93
2023/05/16 08:51:01;;;;;;;;;;;;;;;;;;6213174;22;19949;-93
2023/05/16 08:53:31;;;;;;;;;;;;;;;;;;6214292;22;19968;-94
2023/05/16 08:55:59;;;;;;;;;;;;;;;;;;6187610;23;19930;-93
2023/05/16 08:58:26;;;;;;;;;;;;;;;;;;6212489;22;19948;-93
2023/05/16 09:00:56;;;;;;;;;;;;;;;;;;6211975;22;19908;-93
2023/05/16 09:03:24;;;;;;;;;;;;;;;;;;6197475;22;19904;-93
2023/05/16 09:05:52;;;;;;;;;;;;;;;;;;6186643;22;19971;-93
2023/05/16 09:08:22;;;;;;;;;;;;;;;;;;6222916;22;19956;-91
2023/05/16 09:10:54;;;;;;;;;;;;;;;;;;6186768;22;19911;-93
2023/05/16 09:13:24;;;;;;;;;;;;;;;;;;6187131;22;19909;-94
2023/05/16 09:16:09;;;;;;;;;;;;;;;;;;6212621;22;19953;-94
2023/05/16 09:18:39;;;;;;;;;;;;;;;;;;6222703;22;19961;-92
2023/05/16 09:21:18;;;;;;;;;;;;;;;;;;6163575;22;19908;-92
2023/05/16 09:23:45;;;;;;;;;;;;;;;;;;6223480;22;19960;-92
2023/05/16 09:26:13;;;;;;;;;;;;;;;;;;6186833;22;19944;-92
2023/05/16 09:28:43;;;;;;;;;;;;;;;;;;6186930;22;19948;-92
2023/05/16 09:31:35;;;;;;;;;;;;;;;;;;6186559;22;19948;-92
2023/05/16 09:34:04;;;;;;;;;;;;;;;;;;6187279;22;19956;-92
2023/05/16 09:36:33;;;;;;;;;;;;;;;;;;6193080;22;19918;-93
2023/05/16 09:39:00;;;;;;;;;;;;;;;;;;6186937;22;19908;-93
2023/05/16 09:41:27;;;;;;;;;;;;;;;;;;6222096;22;19940;-93
2023/05/16 09:43:54;;;;;;;;;;;;;;;;;;6162284;22;19960;-92
2023/05/16 09:46:26;;;;;;;;;;;;;;;;;;6186780;22;19920;-94
2023/05/16 09:48:56;;;;;;;;;;;;;;;;;;6211966;22;19973;-93
2023/05/16 09:51:24;;;;;;;;;;;;;;;;;;6213220;22;19952;-94
2023/05/16 09:53:53;;;;;;;;;;;;;;;;;;6186915;22;19948;-94
2023/05/16 09:56:21;;;;;;;;;;;;;;;;;;6185031;22;19904;-93
2023/05/16 09:58:52;;;;;;;;;;;;;;;;;;6159678;23;19920;-92
2023/05/16 10:01:21;;;;;;;;;;;;;;;;;;6194060;23;19904;-93
2023/05/16 10:03:50;;;;;;;;;;;;;;;;;;6222325;22;19967;-92
2023/05/16 10:06:18;;;;;;;;;;;;;;;;;;6186759;23;19904;-93
2023/05/16 10:11:32;;;;;;;;;;;;;;;;;;6183713;22;19938;-93
2023/05/16 10:14:00;;;;;;;;;;;;;;;;;;6161976;23;19972;-94
2023/05/16 10:16:27;;;;;;;;;;;;;;;;;;6185686;22;19908;-92
2023/05/16 10:18:57;;;;;;;;;;;;;;;;;;6160948;23;19948;-92
2023/05/16 10:21:25;;;;;;;;;;;;;;;;;;6161811;22;19914;-93
2023/05/16 10:23:52;;;;;;;;;;;;;;;;;;6163357;22;19952;-92
2023/05/16 10:26:21;;;;;;;;;;;;;;;;;;6187335;22;19952;-93
2023/05/16 10:28:53;;;;;;;;;;;;;;;;;;6212685;22;19940;-94
2023/05/16 10:31:20;;;;;;;;;;;;;;;;;;6211864;22;19955;-94
2023/05/16 10:33:47;;;;;;;;;;;;;;;;;;6162211;22;19956;-95
2023/05/16 10:36:19;;;;;;;;;;;;;;;;;;6212531;22;19964;-95
2023/05/16 10:38:47;;;;;;;;;;;;;;;;;;6212769;22;19956;-95
2023/05/16 10:41:16;;;;;;;;;;;;;;;;;;6185555;22;19909;-96
2023/05/16 10:43:57;;;;;;;;;;;;;;;;;;6222814;22;19944;-94
2023/05/16 10:46:26;;;;;;;;;;;;;;;;;;6193279;22;19921;-95
2023/05/16 10:48:58;;;;;;;;;;;;;;;;;;6186199;22;19948;-94
2023/05/16 10:51:38;;;;;;;;;;;;;;;;;;6161052;22;20302;-94
2023/05/16 10:54:06;;;;;;;;;;;;;;;;;;6184262;22;19955;-94
2023/05/16 10:56:34;;;;;;;;;;;;;;;;;;6186666;22;19952;-94
2023/05/16 10:59:01;;;;;;;;;;;;;;;;;;6186715;22;19944;-92
2023/05/16 11:01:33;;;;;;;;;;;;;;;;;;6210975;22;19908;-93
2023/05/16 11:04:02;;;;;;;;;;;;;;;;;;6195670;22;19908;-93
2023/05/16 11:06:31;;;;;;;;;;;;;;;;;;6210954;22;19955;-94
2023/05/16 11:09:09;;;;;;;;;;;;;;;;;;6212030;22;19952;-93
2023/05/16 11:11:40;;;;;;;;;;;;;;;;;;6221276;22;19952;-94
2023/05/16 11:14:07;;;;;;;;;;;;;;;;;;6161700;22;20152;-93
2023/05/16 11:16:36;;;;;;;;;;;;;;;;;;6212491;22;19953;-93
2023/05/16 11:19:10;;;;;;;;;;;;;;;;;;6186052;23;19908;-92
2023/05/16 11:21:56;;;;;;;;;;;;;;;;;;6196597;23;19908;-92
2023/05/16 11:24:29;;;;;;;;;;;;;;;;;;6212536;22;19953;-92
2023/05/16 11:26:59;;;;;;;;;;;;;;;;;;6210944;22;20425;-93
2023/05/16 11:29:26;;;;;;;;;;;;;;;;;;6212336;22;19948;-93
2023/05/16 11:31:57;;;;;;;;;;;;;;;;;;6185219;22;19966;-92
2023/05/16 11:34:29;;;;;;;;;;;;;;;;;;6186573;22;19964;-96
2023/05/16 11:36:59;;;;;;;;;;;;;;;;;;6186267;22;19915;-94
2023/05/16 11:39:26;;;;;;;;;;;;;;;;;;6186736;22;19944;-94
2023/05/16 11:41:53;;;;;;;;;;;;;;;;;;6186737;22;19908;-95
2023/05/16 11:44:20;;;;;;;;;;;;;;;;;;6212806;22;19940;-94
2023/05/16 11:46:50;;;;;;;;;;;;;;;;;;6212100;22;19944;-94
2023/05/16 11:49:19;;;;;;;;;;;;;;;;;;6185774;22;19964;-93
2023/05/16 11:51:51;;;;;;;;;;;;;;;;;;6185813;22;19992;-94
2023/05/16 11:54:18;;;;;;;;;;;;;;;;;;6196930;22;19944;-92
2023/05/16 11:56:45;;;;;;;;;;;;;;;;;;6186763;23;19944;-93
2023/05/16 11:59:12;;;;;;;;;;;;;;;;;;6183836;23;19964;-92
2023/05/16 12:01:40;;;;;;;;;;;;;;;;;;6208838;23;20249;-93
2023/05/16 12:04:08;;;;;;;;;;;;;;;;;;6209677;23;19927;-93
2023/05/16 12:06:37;;;;;;;;;;;;;;;;;;6209695;23;19924;-93
2023/05/16 12:09:09;;;;;;;;;;;;;;;;;;6218938;22;19921;-93
2023/05/16 12:11:38;;;;;;;;;;;;;;;;;;6221987;22;19941;-93
2023/05/16 12:14:05;;;;;;;;;;;;;;;;;;6212386;22;19960;-93
2023/05/16 12:16:33;;;;;;;;;;;;;;;;;;6212634;22;19952;-95
2023/05/16 12:19:04;;;;;;;;;;;;;;;;;;6211578;22;19952;-93
2023/05/16 12:21:44;;;;;;;;;;;;;;;;;;6186215;22;19948;-95
2023/05/16 12:24:16;;;;;;;;;;;;;;;;;;6220066;22;19948;-94
2023/05/16 12:26:45;;;;;;;;;;;;;;;;;;6217729;22;19964;-93
2023/05/16 12:29:12;;;;;;;;;;;;;;;;;;6185513;22;19948;-94
2023/05/16 12:31:43;;;;;;;;;;;;;;;;;;6187082;22;20013;-92
2023/05/16 12:34:17;;;;;;;;;;;;;;;;;;6187877;22;19952;-94
2023/05/16 12:36:46;;;;;;;;;;;;;;;;;;6213885;22;19944;-93
2023/05/16 12:39:14;;;;;;;;;;;;;;;;;;6213486;22;19988;-93
2023/05/16 12:41:44;;;;;;;;;;;;;;;;;;6188761;22;19969;-93
2023/05/16 12:44:12;;;;;;;;;;;;;;;;;;6164213;22;19948;-93
2023/05/16 12:46:43;;;;;;;;;;;;;;;;;;6213672;22;19944;-94
2023/05/16 12:49:10;;;;;;;;;;;;;;;;;;6213120;22;19964;-94
2023/05/16 12:51:39;;;;;;;;;;;;;;;;;;6188948;22;19952;-92
2023/05/16 12:54:09;;;;;;;;;;;;;;;;;;6188259;22;19948;-93
2023/05/16 12:56:39;;;;;;;;;;;;;;;;;;6220720;22;19984;-92
2023/05/16 12:59:06;;;;;;;;;;;;;;;;;;6188787;22;19987;-93
2023/05/16 13:01:34;;;;;;;;;;;;;;;;;;6163078;22;19948;-93
2023/05/16 13:04:05;;;;;;;;;;;;;;;;;;6213898;22;19966;-93
2023/05/16 13:06:32;;;;;;;;;;;;;;;;;;6188609;22;19950;-93
2023/05/16 13:08:59;;;;;;;;;;;;;;;;;;6214582;22;19968;-94
2023/05/16 13:11:31;;;;;;;;;;;;;;;;;;6224268;22;19940;-94
2023/05/16 13:14:00;;;;;;;;;;;;;;;;;;6224334;22;19948;-92
2023/05/16 13:16:27;;;;;;;;;;;;;;;;;;6188615;22;19943;-93
2023/05/16 13:18:54;;;;;;;;;;;;;;;;;;6163322;22;19952;-93
2023/05/16 13:21:26;;;;;;;;;;;;;;;;;;6188610;22;19948;-93
2023/05/16 13:23:54;;;;;;;;;;;;;;;;;;6214375;22;19960;-93
2023/05/16 13:26:24;;;;;;;;;;;;;;;;;;6163951;22;19960;-94
2023/05/16 13:28:53;;;;;;;;;;;;;;;;;;6188429;22;19956;-93
2023/05/16 13:31:26;;;;;;;;;;;;;;;;;;6223493;22;19956;-92
2023/05/16 13:33:57;;;;;;;;;;;;;;;;;;6213572;22;19952;-93
2023/05/16 13:36:25;;;;;;;;;;;;;;;;;;6221011;22;19940;-92
2023/05/16 13:38:55;;;;;;;;;;;;;;;;;;6214128;22;19948;-92
2023/05/16 13:41:22;;;;;;;;;;;;;;;;;;6213358;22;19952;-92
2023/05/16 13:43:49;;;;;;;;;;;;;;;;;;6187904;22;19920;-93
2023/05/16 13:46:18;;;;;;;;;;;;;;;;;;6213673;22;19948;-92
2023/05/16 13:48:49;;;;;;;;;;;;;;;;;;6213684;22;19944;-92
2023/05/16 13:51:18;;;;;;;;;;;;;;;;;;6187321;22;20045;-92
2023/05/16 13:53:45;;;;;;;;;;;;;;;;;;6187469;22;19948;-91
2023/05/16 13:56:13;;;;;;;;;;;;;;;;;;6188338;22;19940;-92
2023/05/16 13:58:40;;;;;;;;;;;;;;;;;;6214410;22;19952;-92
2023/05/16 14:01:09;;;;;;;;;;;;;;;;;;6187867;22;19944;-92
2023/05/16 14:03:38;;;;;;;;;;;;;;;;;;6162749;22;19908;-91
2023/05/16 14:06:06;;;;;;;;;;;;;;;;;;6188256;22;19948;-94
2023/05/16 14:08:34;;;;;;;;;;;;;;;;;;6163417;22;19952;-92
2023/05/16 14:11:01;;;;;;;;;;;;;;;;;;6223614;22;19948;-94
2023/05/16 14:13:30;;;;;;;;;;;;;;;;;;6188171;22;19944;-95
2023/05/16 14:15:57;;;;;;;;;;;;;;;;;;6213862;22;19952;-92
2023/05/16 14:18:24;;;;;;;;;;;;;;;;;;6187760;22;19959;-93
2023/05/16 14:20:55;;;;;;;;;;;;;;;;;;6223156;22;19944;-92
2023/05/16 14:23:25;;;;;;;;;;;;;;;;;;6213451;22;19980;-93
2023/05/16 14:25:52;;;;;;;;;;;;;;;;;;6163367;22;19949;-94
2023/05/16 14:28:21;;;;;;;;;;;;;;;;;;6213753;22;19944;-94
2023/05/16 14:30:48;;;;;;;;;;;;;;;;;;6187235;22;19944;-94
2023/05/16 14:33:15;;;;;;;;;;;;;;;;;;6213495;22;19948;-93
2023/05/16 14:35:43;;;;;;;;;;;;;;;;;;6187232;22;19968;-94
2023/05/16 14:38:13;;;;;;;;;;;;;;;;;;6187596;22;19963;-93
2023/05/16 14:40:43;;;;;;;;;;;;;;;;;;6223328;22;19960;-93
2023/05/16 14:43:15;;;;;;;;;;;;;;;;;;6188360;22;19960;-92
2023/05/16 14:45:45;;;;;;;;;;;;;;;;;;6187184;23;19948;-93
2023/05/16 14:48:13;;;;;;;;;;;;;;;;;;6213319;22;19956;-92
2023/05/16 14:50:40;;;;;;;;;;;;;;;;;;6187498;22;19948;-93
2023/05/16 14:53:07;;;;;;;;;;;;;;;;;;6213708;22;19956;-92
2023/05/16 14:55:36;;;;;;;;;;;;;;;;;;6187521;22;19968;-94
2023/05/16 14:58:28;;;;;;;;;;;;;;;;;;6213255;22;19940;-93
2023/05/16 15:00:55;;;;;;;;;;;;;;;;;;6222249;22;19945;-94
2023/05/16 15:03:24;;;;;;;;;;;;;;;;;;6188020;22;19908;-93
2023/05/16 15:05:54;;;;;;;;;;;;;;;;;;6187681;22;19972;-93
2023/05/16 15:08:22;;;;;;;;;;;;;;;;;;6213015;22;20016;-94
2023/05/16 15:10:51;;;;;;;;;;;;;;;;;;6212974;22;19944;-95
2023/05/16 15:33:23;;;;;;;;;;;;;;;;;;6183464;23;19956;-94
2023/05/16 15:35:51;;;;;;;;;;;;;;;;;;6182275;23;19945;-94
2023/05/16 15:38:23;;;;;;;;;;;;;;;;;;6163143;22;19953;-96
2023/05/16 15:40:51;;;;;;;;;;;;;;;;;;6187080;22;19944;-93
2023/05/16 15:43:18;;;;;;;;;;;;;;;;;;6187091;22;19968;-93
2023/05/16 15:45:51;;;;;;;;;;;;;;;;;;6187591;22;19944;-94
2023/05/16 15:48:18;;;;;;;;;;;;;;;;;;6223288;22;19940;-92
2023/05/16 15:50:48;;;;;;;;;;;;;;;;;;6212519;22;20259;-94
2023/05/16 15:53:18;;;;;;;;;;;;;;;;;;6212900;22;19944;-95
2023/05/16 15:55:48;;;;;;;;;;;;;;;;;;6162577;22;19956;-94
2023/05/16 15:58:18;;;;;;;;;;;;;;;;;;6222828;22;19944;-93
2023/05/16 16:00:46;;;;;;;;;;;;;;;;;;6186735;22;19948;-93
2023/05/16 16:03:16;;;;;;;;;;;;;;;;;;6187045;22;19960;-92
2023/05/16 16:05:47;;;;;;;;;;;;;;;;;;6212914;22;19948;-93
2023/05/16 16:08:19;;;;;;;;;;;;;;;;;;6223242;22;19936;-94
2023/05/16 16:10:47;;;;;;;;;;;;;;;;;;6188838;22;19948;-94
2023/05/16 16:13:14;;;;;;;;;;;;;;;;;;6188905;22;19948;-93
2023/05/16 16:15:41;;;;;;;;;;;;;;;;;;6189540;22;19956;-93
2023/05/16 16:18:10;;;;;;;;;;;;;;;;;;6164566;22;19956;-93
2023/05/16 16:20:37;;;;;;;;;;;;;;;;;;6162554;22;19948;-91
2023/05/16 16:23:08;;;;;;;;;;;;;;;;;;6189259;22;19944;-93
2023/05/16 16:25:35;;;;;;;;;;;;;;;;;;6164364;22;19948;-93
2023/05/16 16:28:02;;;;;;;;;;;;;;;;;;6214972;22;19944;-93
2023/05/16 16:30:31;;;;;;;;;;;;;;;;;;6214355;22;19995;-94
2023/05/16 16:32:59;;;;;;;;;;;;;;;;;;6214444;22;19940;-94
2023/05/16 16:35:26;;;;;;;;;;;;;;;;;;6188964;22;19948;-92
2023/05/16 16:37:56;;;;;;;;;;;;;;;;;;6215717;22;19940;-94
2023/05/16 16:40:25;;;;;;;;;;;;;;;;;;6214458;22;19952;-93
2023/05/16 16:42:55;;;;;;;;;;;;;;;;;;6198428;22;19964;-94
2023/05/16 16:45:22;;;;;;;;;;;;;;;;;;6214962;22;19944;-94
2023/05/16 16:47:50;;;;;;;;;;;;;;;;;;6188214;22;19949;-95
2023/05/16 16:50:17;;;;;;;;;;;;;;;;;;6214520;22;19948;-94
2023/05/16 16:52:46;;;;;;;;;;;;;;;;;;6188959;22;19969;-93
2023/05/16 16:55:13;;;;;;;;;;;;;;;;;;6188164;22;19948;-92
2023/05/16 16:57:42;;;;;;;;;;;;;;;;;;6214639;22;20114;-96
2023/05/16 17:00:10;;;;;;;;;;;;;;;;;;6188998;22;19960;-95
2023/05/16 17:03:03;;;;;;;;;;;;;;;;;;6186917;22;19948;-94
2023/05/16 17:05:33;;;;;;;;;;;;;;;;;;6213166;22;19952;-94
2023/05/16 17:08:00;;;;;;;;;;;;;;;;;;6187833;22;19944;-93
2023/05/16 17:10:33;;;;;;;;;;;;;;;;;;6163491;22;19956;-93
2023/05/16 17:13:07;;;;;;;;;;;;;;;;;;6188283;22;19944;-94
2023/05/16 17:15:42;;;;;;;;;;;;;;;;;;6187477;22;19968;-92
2023/05/16 17:18:10;;;;;;;;;;;;;;;;;;6213573;22;19948;-93
2023/05/16 17:20:38;;;;;;;;;;;;;;;;;;6163315;22;19948;-93
2023/05/16 17:23:05;;;;;;;;;;;;;;;;;;6187837;22;19948;-92
2023/05/16 17:25:35;;;;;;;;;;;;;;;;;;6186936;22;19955;-93
2023/05/16 17:28:03;;;;;;;;;;;;;;;;;;6213888;22;19952;-93
2023/05/16 17:30:31;;;;;;;;;;;;;;;;;;6213559;22;19944;-93
2023/05/16 17:33:00;;;;;;;;;;;;;;;;;;6162629;22;19940;-94
2023/05/16 17:35:28;;;;;;;;;;;;;;;;;;6213292;22;19956;-93